createdAt,value
2023-04-07T00:00:51.183Z,989.68
2023-04-07T00:01:48.433Z,989.66
2023-04-07T00:02:48.492Z,989.60
2023-04-07T00:03:48.343Z,989.61
2023-04-07T00:04:48.227Z,989.58
2023-04-07T00:05:48.137Z,989.58
2023-04-07T00:06:48.035Z,989.58
2023-04-07T00:07:55.824Z,989.56
2023-04-07T00:08:47.834Z,989.56
2023-04-07T00:09:47.752Z,989.55
2023-04-07T00:10:47.665Z,989.53
2023-04-07T00:11:47.608Z,989.54
2023-04-07T00:12:47.500Z,989.53
2023-04-07T00:13:47.419Z,989.55
2023-04-07T00:15:47.374Z,989.52
2023-04-07T00:16:47.466Z,989.51
2023-04-07T00:19:46.956Z,989.50
2023-04-07T00:20:46.872Z,989.53
2023-04-07T00:21:46.785Z,989.47
2023-04-07T00:22:46.706Z,989.48
2023-04-07T00:23:46.820Z,989.52
2023-04-07T00:24:46.539Z,989.47
2023-04-07T00:25:46.454Z,989.47
2023-04-07T00:26:46.373Z,989.45
2023-04-07T00:27:46.312Z,989.45
2023-04-07T00:28:46.207Z,989.42
2023-04-07T00:29:46.121Z,989.40
2023-04-07T00:30:46.002Z,989.40
2023-04-07T00:33:45.840Z,989.35
2023-04-07T00:34:46.110Z,989.30
2023-04-07T00:35:45.671Z,989.29
2023-04-07T00:36:45.791Z,989.27
2023-04-07T00:37:45.669Z,989.28
2023-04-07T00:38:45.783Z,989.29
2023-04-07T00:40:45.206Z,989.26
2023-04-07T00:41:45.138Z,989.23
2023-04-07T00:42:45.242Z,989.27
2023-04-07T00:43:44.954Z,989.23
2023-04-07T00:44:44.842Z,989.23
2023-04-07T00:45:44.755Z,989.26
2023-04-07T00:46:44.743Z,989.23
2023-04-07T00:47:44.606Z,989.26
2023-04-07T00:48:44.506Z,989.19
2023-04-07T00:49:44.433Z,989.22
2023-04-07T00:50:44.340Z,989.22
2023-04-07T00:51:44.317Z,989.20
2023-04-07T00:52:44.172Z,989.18
2023-04-07T01:04:43.710Z,989.02
2023-04-07T01:06:43.243Z,988.98
2023-04-07T01:08:43.900Z,988.97
2023-04-07T01:22:41.877Z,988.77
2023-04-07T01:23:42.809Z,988.79
2023-04-07T01:24:41.509Z,988.77
2023-04-07T01:25:41.426Z,988.82
2023-04-07T01:26:41.341Z,988.76
2023-04-07T01:27:41.262Z,988.77
2023-04-07T01:28:41.246Z,988.79
2023-04-07T01:29:41.127Z,988.74
2023-04-07T01:30:41.042Z,988.76
2023-04-07T01:31:41.028Z,988.77
2023-04-07T01:32:40.873Z,988.76
2023-04-07T01:33:40.759Z,988.75
2023-04-07T01:34:40.674Z,988.74
2023-04-07T01:35:40.597Z,988.73
2023-04-07T01:36:40.641Z,988.71
2023-04-07T01:37:40.452Z,988.70
2023-04-07T01:38:40.344Z,988.72
2023-04-07T01:39:40.260Z,988.71
2023-04-07T01:40:40.517Z,988.73
2023-04-07T01:41:40.096Z,988.72
2023-04-07T01:42:40.070Z,988.70
2023-04-07T01:43:40.592Z,988.70
2023-04-07T01:44:39.846Z,988.70
2023-04-07T01:45:39.805Z,988.68
2023-04-07T01:46:39.716Z,988.65
2023-04-07T01:47:39.711Z,988.64
2023-04-07T01:49:39.462Z,988.65
2023-04-07T01:50:39.455Z,988.66
2023-04-07T01:51:39.697Z,988.61
2023-04-07T01:52:39.220Z,988.65
2023-04-07T01:53:39.166Z,988.66
2023-04-07T01:54:39.047Z,988.62
2023-04-07T01:55:38.964Z,988.64
2023-04-07T01:56:38.858Z,988.62
2023-04-07T01:57:39.076Z,988.59
2023-04-07T01:58:38.680Z,988.63
2023-04-07T01:59:38.634Z,988.60
2023-04-07T02:00:38.550Z,988.59
2023-04-07T02:01:38.671Z,988.57
2023-04-07T02:02:38.616Z,988.56
2023-04-07T02:03:38.455Z,988.56
2023-04-07T02:04:38.183Z,988.55
2023-04-07T02:05:38.102Z,988.53
2023-04-07T02:07:25.596Z,988.53
2023-04-07T02:08:25.446Z,988.47
2023-04-07T02:21:24.883Z,988.42
2023-04-07T02:22:24.280Z,988.41
2023-04-07T02:31:27.001Z,988.36
2023-04-07T02:33:23.369Z,988.36
2023-04-07T02:35:23.411Z,988.34
2023-04-07T02:36:23.396Z,988.34
2023-04-07T02:37:23.035Z,988.34
2023-04-07T02:39:23.225Z,988.32
2023-04-07T02:40:22.989Z,988.28
2023-04-07T02:41:23.604Z,988.28
2023-04-07T02:42:23.025Z,988.30
2023-04-07T02:44:22.458Z,988.26
2023-04-07T02:45:22.783Z,988.22
2023-04-07T02:46:22.321Z,988.29
2023-04-07T02:48:22.173Z,988.27
2023-04-07T02:50:21.923Z,988.24
2023-04-07T02:51:21.873Z,988.26
2023-04-07T02:52:21.802Z,988.23
2023-04-07T02:53:21.718Z,988.26
2023-04-07T02:54:21.635Z,988.29
2023-04-07T02:55:21.872Z,988.29
2023-04-07T02:57:21.535Z,988.25
2023-04-07T02:58:21.251Z,988.28
2023-04-07T02:59:21.173Z,988.27
2023-04-07T03:02:22.572Z,988.23
2023-04-07T03:10:45.315Z,988.20
2023-04-07T03:11:45.452Z,988.20
2023-04-07T03:12:45.340Z,988.18
2023-04-07T03:13:45.043Z,988.14
2023-04-07T03:14:44.963Z,988.13
2023-04-07T03:15:44.881Z,988.17
2023-04-07T03:16:44.900Z,988.16
2023-04-07T03:17:44.760Z,988.15
2023-04-07T03:18:44.640Z,988.15
2023-04-07T03:19:44.584Z,988.13
2023-04-07T03:20:44.755Z,988.13
2023-04-07T03:21:44.583Z,988.11
2023-04-07T03:22:44.298Z,988.10
2023-04-07T03:23:44.422Z,988.11
2023-04-07T03:24:44.370Z,988.13
2023-04-07T03:25:44.086Z,988.11
2023-04-07T03:26:44.028Z,988.10
2023-04-07T03:27:44.082Z,988.06
2023-04-07T03:28:44.549Z,988.09
2023-04-07T03:29:43.752Z,988.07
2023-04-07T03:30:43.780Z,988.07
2023-04-07T03:31:43.549Z,988.07
2023-04-07T03:32:43.494Z,988.04
2023-04-07T03:33:43.621Z,988.01
2023-04-07T03:34:43.303Z,988.04
2023-04-07T03:35:43.484Z,988.00
2023-04-07T03:36:43.727Z,987.99
2023-04-07T03:37:43.287Z,987.98
2023-04-07T03:38:42.985Z,987.98
2023-04-07T03:39:42.923Z,988.01
2023-04-07T03:40:42.849Z,987.98
2023-04-07T03:41:42.957Z,988.00
2023-04-07T03:42:45.279Z,987.97
2023-04-07T03:43:42.558Z,988.02
2023-04-07T03:44:42.487Z,988.00
2023-04-07T03:45:42.390Z,988.03
2023-04-07T03:46:42.341Z,988.02
2023-04-07T03:47:42.433Z,988.00
2023-04-07T03:48:42.139Z,988.03
2023-04-07T03:49:42.086Z,988.01
2023-04-07T03:50:41.977Z,988.01
2023-04-07T03:51:41.889Z,988.03
2023-04-07T03:52:41.804Z,988.01
2023-04-07T03:53:41.762Z,988.02
2023-04-07T03:54:41.649Z,987.99
2023-04-07T03:55:41.565Z,987.96
2023-04-07T03:56:41.476Z,988.00
2023-04-07T03:57:41.388Z,987.97
2023-04-07T03:58:41.344Z,987.94
2023-04-07T03:59:41.227Z,987.93
2023-04-07T04:00:41.149Z,987.97
2023-04-07T04:01:41.090Z,987.94
2023-04-07T04:02:41.101Z,987.98
2023-04-07T04:03:41.024Z,987.96
2023-04-07T04:04:40.844Z,987.96
2023-04-07T04:05:40.726Z,987.98
2023-04-07T04:06:40.793Z,987.96
2023-04-07T04:07:40.569Z,987.96
2023-04-07T04:08:40.478Z,987.98
2023-04-07T04:09:40.392Z,987.95
2023-04-07T04:10:40.315Z,987.91
2023-04-07T04:11:40.230Z,987.93
2023-04-07T04:12:40.145Z,987.94
2023-04-07T04:13:40.059Z,987.90
2023-04-07T04:14:40.002Z,987.92
2023-04-07T04:15:39.937Z,987.93
2023-04-07T04:16:39.821Z,987.95
2023-04-07T04:17:39.743Z,987.94
2023-04-07T04:18:39.655Z,987.95
2023-04-07T04:19:39.613Z,987.91
2023-04-07T04:20:39.631Z,987.93
2023-04-07T04:21:39.397Z,987.90
2023-04-07T04:22:39.318Z,987.98
2023-04-07T04:23:39.230Z,987.90
2023-04-07T04:24:39.155Z,987.92
2023-04-07T04:25:39.068Z,987.89
2023-04-07T04:26:39.003Z,987.90
2023-04-07T04:27:38.942Z,987.88
2023-04-07T04:28:39.094Z,987.88
2023-04-07T04:29:38.737Z,987.88
2023-04-07T04:30:38.689Z,987.93
2023-04-07T04:31:38.605Z,987.92
2023-04-07T04:32:38.529Z,987.89
2023-04-07T04:33:38.408Z,987.96
2023-04-07T04:34:38.324Z,987.89
2023-04-07T04:35:38.390Z,987.91
2023-04-07T04:36:38.611Z,987.93
2023-04-07T04:37:38.325Z,987.91
2023-04-07T04:38:37.990Z,987.91
2023-04-07T04:39:37.918Z,987.92
2023-04-07T04:40:37.825Z,987.91
2023-04-07T04:41:37.742Z,987.92
2023-04-07T04:42:37.660Z,987.93
2023-04-07T04:43:37.574Z,987.94
2023-04-07T04:44:37.496Z,987.90
2023-04-07T04:45:37.417Z,987.92
2023-04-07T04:46:37.377Z,987.95
2023-04-07T04:47:37.275Z,987.93
2023-04-07T04:48:37.162Z,987.93
2023-04-07T04:49:37.081Z,987.98
2023-04-07T04:50:36.997Z,987.97
2023-04-07T04:51:36.931Z,988.00
2023-04-07T04:52:36.836Z,988.04
2023-04-07T04:53:36.747Z,988.01
2023-04-07T04:54:36.666Z,988.04
2023-04-07T04:55:36.586Z,988.03
2023-04-07T04:56:36.874Z,988.04
2023-04-07T04:57:36.666Z,988.04
2023-04-07T04:58:36.334Z,988.08
2023-04-07T04:59:36.257Z,988.11
2023-04-07T05:00:36.483Z,988.10
2023-04-07T05:01:36.112Z,988.11
2023-04-07T05:02:36.249Z,988.11
2023-04-07T05:03:36.065Z,988.13
2023-04-07T05:04:35.872Z,988.11
2023-04-07T05:05:35.775Z,988.13
2023-04-07T05:06:35.676Z,988.10
2023-04-07T05:07:35.589Z,988.11
2023-04-07T05:08:35.509Z,988.08
2023-04-07T05:09:35.472Z,988.05
2023-04-07T05:10:35.346Z,988.09
2023-04-07T05:11:35.258Z,988.07
2023-04-07T05:12:35.177Z,988.03
2023-04-07T05:13:35.090Z,988.05
2023-04-07T05:14:35.009Z,988.06
2023-04-07T05:15:34.926Z,988.08
2023-04-07T05:16:34.962Z,988.05
2023-04-07T05:17:34.850Z,988.08
2023-04-07T05:18:34.817Z,988.10
2023-04-07T05:19:34.596Z,988.10
2023-04-07T05:20:34.518Z,988.09
2023-04-07T05:21:34.448Z,988.03
2023-04-07T05:22:34.351Z,988.00
2023-04-07T05:23:34.263Z,988.00
2023-04-07T05:24:34.181Z,987.99
2023-04-07T05:25:34.150Z,988.01
2023-04-07T05:26:34.019Z,988.00
2023-04-07T05:27:33.939Z,988.00
2023-04-07T05:28:33.852Z,987.98
2023-04-07T05:29:33.763Z,988.03
2023-04-07T05:30:33.706Z,988.06
2023-04-07T05:31:33.630Z,987.99
2023-04-07T05:32:33.539Z,988.02
2023-04-07T05:33:33.435Z,987.98
2023-04-07T05:34:33.375Z,987.98
2023-04-07T05:35:33.285Z,987.97
2023-04-07T05:36:33.187Z,987.98
2023-04-07T05:37:33.116Z,987.97
2023-04-07T05:38:33.024Z,987.96
2023-04-07T05:39:32.942Z,987.98
2023-04-07T05:40:33.458Z,988.01
2023-04-07T05:41:32.779Z,988.00
2023-04-07T05:42:32.695Z,988.02
2023-04-07T05:43:32.604Z,988.08
2023-04-07T05:44:32.528Z,988.05
2023-04-07T05:45:32.471Z,988.06
2023-04-07T05:46:32.360Z,988.05
2023-04-07T05:47:32.300Z,988.04
2023-04-07T05:48:32.204Z,988.03
2023-04-07T05:49:32.112Z,988.06
2023-04-07T05:50:32.058Z,988.03
2023-04-07T05:51:31.945Z,988.02
2023-04-07T05:52:31.869Z,988.06
2023-04-07T05:53:31.789Z,988.10
2023-04-07T05:54:31.698Z,988.05
2023-04-07T05:55:31.623Z,988.04
2023-04-07T05:56:31.566Z,988.06
2023-04-07T05:57:31.458Z,988.02
2023-04-07T05:58:31.366Z,988.03
2023-04-07T05:59:31.305Z,988.05
2023-04-07T06:00:31.225Z,988.03
2023-04-07T06:01:31.153Z,988.02
2023-04-07T06:02:31.165Z,988.04
2023-04-07T06:03:30.988Z,988.06
2023-04-07T06:04:30.873Z,988.02
2023-04-07T06:05:30.822Z,988.06
2023-04-07T06:06:30.757Z,988.06
2023-04-07T06:07:30.623Z,988.06
2023-04-07T06:08:30.540Z,988.08
2023-04-07T06:09:30.460Z,988.06
2023-04-07T06:10:30.382Z,988.05
2023-04-07T06:11:30.591Z,988.05
2023-04-07T06:12:30.212Z,988.06
2023-04-07T06:13:30.133Z,988.03
2023-04-07T06:14:30.044Z,988.03
2023-04-07T06:15:29.962Z,988.03
2023-04-07T06:16:29.926Z,987.99
2023-04-07T06:17:29.820Z,988.06
2023-04-07T06:18:29.715Z,988.05
2023-04-07T06:19:29.636Z,988.02
2023-04-07T06:20:29.587Z,988.04
2023-04-07T06:21:29.477Z,988.03
2023-04-07T06:22:29.416Z,988.05
2023-04-07T06:23:29.304Z,988.05
2023-04-07T06:24:29.224Z,988.05
2023-04-07T06:25:29.138Z,988.04
2023-04-07T06:26:29.062Z,988.04
2023-04-07T06:27:28.973Z,987.98
2023-04-07T06:28:28.913Z,987.97
2023-04-07T06:29:28.809Z,987.99
2023-04-07T06:30:28.788Z,987.95
2023-04-07T06:31:28.647Z,988.01
2023-04-07T06:32:28.636Z,987.99
2023-04-07T06:33:28.578Z,988.01
2023-04-07T06:34:28.498Z,988.01
2023-04-07T06:35:28.319Z,987.98
2023-04-07T06:36:28.295Z,987.95
2023-04-07T06:37:28.163Z,987.97
2023-04-07T06:38:28.097Z,987.98
2023-04-07T06:39:27.994Z,987.97
2023-04-07T06:40:27.944Z,987.98
2023-04-07T06:41:27.830Z,988.00
2023-04-07T06:42:27.746Z,987.99
2023-04-07T06:43:27.914Z,988.02
2023-04-07T06:44:27.705Z,988.02
2023-04-07T06:45:27.503Z,988.01
2023-04-07T06:46:27.756Z,988.02
2023-04-07T06:47:27.354Z,988.00
2023-04-07T06:48:27.254Z,988.03
2023-04-07T06:49:27.177Z,988.01
2023-04-07T06:50:27.150Z,988.02
2023-04-07T06:51:27.006Z,988.00
2023-04-07T06:52:26.931Z,987.97
2023-04-07T06:53:26.843Z,987.99
2023-04-07T06:54:26.791Z,988.01
2023-04-07T06:55:26.689Z,988.03
2023-04-07T06:56:26.600Z,988.07
2023-04-07T06:57:26.855Z,988.09
2023-04-07T06:58:26.443Z,988.08
2023-04-07T06:59:26.354Z,988.08
2023-04-07T07:00:26.272Z,988.09
2023-04-07T07:01:26.233Z,988.12
2023-04-07T07:02:26.190Z,988.14
2023-04-07T07:03:26.110Z,988.09
2023-04-07T07:04:26.180Z,988.13
2023-04-07T07:05:25.879Z,988.13
2023-04-07T07:06:25.786Z,988.18
2023-04-07T07:07:25.707Z,988.16
2023-04-07T07:08:25.822Z,988.18
2023-04-07T07:09:25.879Z,988.20
2023-04-07T07:10:25.490Z,988.20
2023-04-07T07:11:25.380Z,988.23
2023-04-07T07:12:25.303Z,988.24
2023-04-07T07:13:25.216Z,988.21
2023-04-07T07:14:25.136Z,988.24
2023-04-07T07:15:25.073Z,988.24
2023-04-07T07:16:24.979Z,988.30
2023-04-07T07:17:24.919Z,988.29
2023-04-07T07:18:24.813Z,988.29
2023-04-07T07:19:24.745Z,988.24
2023-04-07T07:20:24.653Z,988.29
2023-04-07T07:21:24.576Z,988.31
2023-04-07T07:22:24.493Z,988.28
2023-04-07T07:23:24.410Z,988.30
2023-04-07T07:24:24.334Z,988.27
2023-04-07T07:25:24.250Z,988.28
2023-04-07T07:26:24.184Z,988.33
2023-04-07T07:27:24.085Z,988.31
2023-04-07T07:28:24.015Z,988.31
2023-04-07T07:29:23.924Z,988.35
2023-04-07T07:30:23.856Z,988.32
2023-04-07T07:31:23.804Z,988.33
2023-04-07T07:32:23.730Z,988.35
2023-04-07T07:33:23.605Z,988.30
2023-04-07T07:34:23.520Z,988.33
2023-04-07T07:35:23.442Z,988.33
2023-04-07T07:36:23.383Z,988.35
2023-04-07T07:37:23.276Z,988.30
2023-04-07T07:38:23.201Z,988.34
2023-04-07T07:39:23.137Z,988.37
2023-04-07T07:40:23.058Z,988.34
2023-04-07T07:41:22.974Z,988.37
2023-04-07T07:42:22.898Z,988.39
2023-04-07T07:43:22.798Z,988.37
2023-04-07T07:44:22.741Z,988.39
2023-04-07T07:45:22.656Z,988.37
2023-04-07T07:46:22.582Z,988.37
2023-04-07T07:47:22.509Z,988.36
2023-04-07T07:48:22.407Z,988.42
2023-04-07T07:49:22.312Z,988.38
2023-04-07T07:50:22.232Z,988.41
2023-04-07T07:51:22.152Z,988.43
2023-04-07T07:52:22.069Z,988.43
2023-04-07T07:53:22.003Z,988.43
2023-04-07T07:54:21.930Z,988.46
2023-04-07T07:55:21.834Z,988.45
2023-04-07T07:56:21.757Z,988.46
2023-04-07T07:57:21.671Z,988.44
2023-04-07T07:58:21.758Z,988.45
2023-04-07T07:59:21.506Z,988.45
2023-04-07T08:00:21.424Z,988.50
2023-04-07T08:01:21.352Z,988.49
2023-04-07T08:02:21.375Z,988.48
2023-04-07T08:03:21.262Z,988.52
2023-04-07T08:04:21.157Z,988.48
2023-04-07T08:05:21.027Z,988.51
2023-04-07T08:06:20.944Z,988.51
2023-04-07T08:07:20.865Z,988.54
2023-04-07T08:08:20.791Z,988.52
2023-04-07T08:09:20.711Z,988.55
2023-04-07T08:10:20.623Z,988.51
2023-04-07T08:11:20.543Z,988.52
2023-04-07T08:12:20.461Z,988.50
2023-04-07T08:13:20.384Z,988.52
2023-04-07T08:14:20.321Z,988.52
2023-04-07T08:15:20.221Z,988.53
2023-04-07T08:16:20.174Z,988.51
2023-04-07T08:17:20.057Z,988.51
2023-04-07T08:18:19.977Z,988.50
2023-04-07T08:19:19.908Z,988.53
2023-04-07T08:20:19.819Z,988.52
2023-04-07T08:21:19.740Z,988.56
2023-04-07T08:22:19.716Z,988.54
2023-04-07T08:23:19.579Z,988.53
2023-04-07T08:24:19.496Z,988.52
2023-04-07T08:25:19.428Z,988.53
2023-04-07T08:26:19.340Z,988.58
2023-04-07T08:27:19.309Z,988.56
2023-04-07T08:28:19.176Z,988.57
2023-04-07T08:29:19.113Z,988.56
2023-04-07T08:30:19.054Z,988.60
2023-04-07T08:31:18.966Z,988.58
2023-04-07T08:32:18.929Z,988.58
2023-04-07T08:33:18.843Z,988.59
2023-04-07T08:34:19.295Z,988.62
2023-04-07T08:35:18.639Z,988.62
2023-04-07T08:36:18.603Z,988.58
2023-04-07T08:37:18.454Z,988.63
2023-04-07T08:38:18.375Z,988.61
2023-04-07T08:39:18.302Z,988.57
2023-04-07T08:40:18.270Z,988.61
2023-04-07T08:41:18.138Z,988.60
2023-04-07T08:42:18.079Z,988.62
2023-04-07T08:43:18.003Z,988.64
2023-04-07T08:44:17.971Z,988.59
2023-04-07T08:45:17.814Z,988.63
2023-04-07T08:46:17.798Z,988.56
2023-04-07T08:47:17.684Z,988.60
2023-04-07T08:48:17.588Z,988.62
2023-04-07T08:49:17.499Z,988.62
2023-04-07T08:50:17.423Z,988.65
2023-04-07T08:51:17.341Z,988.65
2023-04-07T08:52:17.264Z,988.67
2023-04-07T08:53:17.183Z,988.65
2023-04-07T08:54:17.100Z,988.69
2023-04-07T08:55:17.049Z,988.69
2023-04-07T08:56:17.299Z,988.68
2023-04-07T08:57:16.861Z,988.70
2023-04-07T08:58:16.781Z,988.67
2023-04-07T08:59:16.705Z,988.68
2023-04-07T09:00:16.673Z,988.74
2023-04-07T09:01:16.636Z,988.74
2023-04-07T09:02:16.496Z,988.74
2023-04-07T09:03:16.431Z,988.75
2023-04-07T09:04:16.432Z,988.80
2023-04-07T09:05:16.243Z,988.78
2023-04-07T09:06:16.152Z,988.77
2023-04-07T09:07:16.069Z,988.78
2023-04-07T09:08:15.990Z,988.83
2023-04-07T09:09:15.919Z,988.86
2023-04-07T09:10:15.829Z,988.87
2023-04-07T09:11:15.746Z,988.87
2023-04-07T09:12:15.669Z,988.89
2023-04-07T09:13:15.605Z,988.88
2023-04-07T09:14:15.518Z,988.88
2023-04-07T09:15:15.430Z,988.89
2023-04-07T09:16:15.445Z,988.90
2023-04-07T09:17:15.271Z,988.90
2023-04-07T09:18:15.211Z,988.90
2023-04-07T09:19:15.113Z,988.91
2023-04-07T09:20:15.029Z,988.91
2023-04-07T09:21:15.824Z,988.90
2023-04-07T09:22:14.875Z,988.87
2023-04-07T09:23:14.790Z,988.86
2023-04-07T09:24:14.712Z,988.92
2023-04-07T09:25:14.651Z,988.94
2023-04-07T09:26:14.552Z,988.93
2023-04-07T09:27:16.806Z,988.91
2023-04-07T09:28:14.405Z,988.95
2023-04-07T09:29:14.324Z,988.94
2023-04-07T09:30:14.233Z,988.98
2023-04-07T09:31:14.154Z,988.97
2023-04-07T09:32:14.163Z,988.95
2023-04-07T09:33:13.993Z,988.93
2023-04-07T09:34:13.942Z,988.93
2023-04-07T09:35:13.832Z,988.92
2023-04-07T09:36:13.797Z,988.91
2023-04-07T09:37:13.677Z,988.91
2023-04-07T09:38:13.627Z,988.92
2023-04-07T09:39:13.516Z,988.89
2023-04-07T09:40:13.439Z,988.93
2023-04-07T09:41:13.422Z,988.89
2023-04-07T09:42:13.274Z,988.91
2023-04-07T09:43:13.197Z,988.92
2023-04-07T09:44:13.120Z,988.92
2023-04-07T09:45:14.568Z,988.89
2023-04-07T09:46:12.985Z,988.92
2023-04-07T09:47:12.888Z,988.89
2023-04-07T09:48:12.803Z,988.90
2023-04-07T09:49:12.721Z,988.92
2023-04-07T09:50:12.665Z,988.88
2023-04-07T09:51:12.565Z,988.91
2023-04-07T09:52:12.485Z,988.88
2023-04-07T09:53:12.403Z,988.89
2023-04-07T09:54:12.332Z,988.86
2023-04-07T09:55:12.249Z,988.82
2023-04-07T09:56:12.173Z,988.82
2023-04-07T09:57:12.091Z,988.87
2023-04-07T09:58:12.012Z,988.88
2023-04-07T09:59:11.944Z,988.88
2023-04-07T10:00:11.860Z,988.84
2023-04-07T10:01:11.957Z,988.87
2023-04-07T10:02:11.885Z,988.86
2023-04-07T10:03:11.652Z,988.88
2023-04-07T10:04:11.600Z,988.87
2023-04-07T10:05:11.470Z,988.85
2023-04-07T10:06:11.406Z,988.87
2023-04-07T10:07:11.311Z,988.86
2023-04-07T10:08:11.235Z,988.88
2023-04-07T10:09:11.147Z,988.91
2023-04-07T10:10:11.079Z,988.92
2023-04-07T10:11:10.997Z,988.90
2023-04-07T10:12:10.925Z,988.92
2023-04-07T10:13:10.832Z,988.92
2023-04-07T10:14:10.754Z,989.00
2023-04-07T10:15:10.675Z,988.98
2023-04-07T10:16:10.956Z,989.02
2023-04-07T10:17:10.530Z,988.96
2023-04-07T10:18:10.441Z,989.03
2023-04-07T10:19:10.365Z,989.05
2023-04-07T10:20:10.292Z,989.05
2023-04-07T10:21:10.206Z,989.02
2023-04-07T10:22:10.149Z,988.97
2023-04-07T10:23:10.402Z,988.92
2023-04-07T10:24:09.971Z,988.98
2023-04-07T10:25:09.897Z,988.96
2023-04-07T10:26:09.833Z,988.94
2023-04-07T10:27:09.739Z,988.94
2023-04-07T10:28:09.659Z,988.96
2023-04-07T10:29:09.593Z,988.94
2023-04-07T10:30:09.503Z,988.98
2023-04-07T10:31:09.470Z,988.98
2023-04-07T10:32:09.409Z,988.96
2023-04-07T10:33:09.275Z,988.99
2023-04-07T10:34:09.195Z,988.96
2023-04-07T10:35:09.120Z,989.00
2023-04-07T10:36:09.084Z,989.03
2023-04-07T10:37:08.957Z,988.98
2023-04-07T10:38:09.056Z,989.03
2023-04-07T10:39:08.811Z,989.07
2023-04-07T10:40:08.725Z,989.07
2023-04-07T10:41:08.649Z,989.06
2023-04-07T10:42:08.562Z,989.08
2023-04-07T10:43:08.502Z,989.08
2023-04-07T10:44:08.444Z,989.08
2023-04-07T10:45:08.532Z,989.08
2023-04-07T10:46:08.295Z,989.09
2023-04-07T10:47:08.174Z,989.11
2023-04-07T10:48:08.375Z,989.11
2023-04-07T10:49:08.017Z,989.09
2023-04-07T10:50:07.936Z,989.06
2023-04-07T10:51:08.000Z,989.09
2023-04-07T10:52:07.785Z,989.09
2023-04-07T10:53:07.714Z,989.17
2023-04-07T10:54:07.653Z,989.07
2023-04-07T10:55:07.554Z,989.09
2023-04-07T10:56:07.481Z,989.09
2023-04-07T10:57:07.407Z,989.06
2023-04-07T10:58:07.319Z,989.05
2023-04-07T10:59:07.245Z,989.03
2023-04-07T11:00:07.170Z,989.05
2023-04-07T11:01:07.116Z,989.05
2023-04-07T11:02:07.288Z,989.04
2023-04-07T11:03:07.169Z,989.04
2023-04-07T11:04:06.940Z,989.07
2023-04-07T11:05:06.780Z,989.08
2023-04-07T11:06:07.120Z,989.06
2023-04-07T11:07:06.670Z,989.03
2023-04-07T11:08:06.600Z,989.04
2023-04-07T11:09:06.475Z,989.03
2023-04-07T11:10:06.422Z,989.02
2023-04-07T11:11:06.321Z,989.01
2023-04-07T11:12:06.264Z,989.02
2023-04-07T11:13:06.203Z,989.01
2023-04-07T11:14:06.151Z,989.02
2023-04-07T11:15:06.016Z,989.03
2023-04-07T11:16:06.009Z,988.98
2023-04-07T11:17:05.861Z,989.01
2023-04-07T11:18:05.849Z,989.03
2023-04-07T11:19:05.723Z,989.03
2023-04-07T11:20:05.632Z,988.98
2023-04-07T11:21:05.601Z,989.00
2023-04-07T11:22:05.478Z,988.99
2023-04-07T11:23:05.402Z,988.98
2023-04-07T11:24:05.343Z,989.00
2023-04-07T11:25:05.287Z,989.00
2023-04-07T11:26:05.189Z,988.97
2023-04-07T11:27:05.096Z,989.00
2023-04-07T11:28:05.029Z,989.01
2023-04-07T11:29:04.942Z,989.00
2023-04-07T11:30:04.862Z,988.97
2023-04-07T11:31:04.812Z,988.98
2023-04-07T11:32:04.715Z,989.01
2023-04-07T11:33:04.673Z,989.01
2023-04-07T11:34:04.606Z,989.04
2023-04-07T11:35:04.480Z,989.03
2023-04-07T11:36:04.459Z,989.07
2023-04-07T11:37:04.326Z,989.06
2023-04-07T11:38:04.258Z,989.12
2023-04-07T11:39:04.172Z,989.09
2023-04-07T11:40:04.234Z,989.10
2023-04-07T11:41:04.008Z,989.11
2023-04-07T11:42:03.968Z,989.10
2023-04-07T11:43:03.867Z,989.15
2023-04-07T11:44:03.773Z,989.14
2023-04-07T11:45:04.205Z,989.15
2023-04-07T11:46:03.617Z,989.16
2023-04-07T11:47:03.849Z,989.15
2023-04-07T11:48:03.732Z,989.16
2023-04-07T11:49:03.377Z,989.20
2023-04-07T11:50:03.303Z,989.17
2023-04-07T11:51:03.219Z,989.19
2023-04-07T11:52:03.325Z,989.22
2023-04-07T11:53:03.058Z,989.21
2023-04-07T11:54:03.001Z,989.21
2023-04-07T11:55:02.900Z,989.21
2023-04-07T11:56:02.830Z,989.21
2023-04-07T11:57:02.740Z,989.21
2023-04-07T11:58:02.681Z,989.19
2023-04-07T11:59:02.614Z,989.23
2023-04-07T12:00:02.511Z,989.21
2023-04-07T12:01:02.421Z,989.20
2023-04-07T12:02:02.593Z,989.22
2023-04-07T12:03:02.598Z,989.22
2023-04-07T12:04:02.713Z,989.20
2023-04-07T12:05:02.157Z,989.22
2023-04-07T12:06:02.034Z,989.21
2023-04-07T12:07:02.296Z,989.21
2023-04-07T12:08:01.874Z,989.22
2023-04-07T12:09:01.787Z,989.24
2023-04-07T12:10:01.708Z,989.29
2023-04-07T12:11:01.667Z,989.20
2023-04-07T12:12:01.565Z,989.25
2023-04-07T12:13:01.469Z,989.27
2023-04-07T12:14:01.466Z,989.29
2023-04-07T12:15:01.363Z,989.31
2023-04-07T12:16:01.275Z,989.31
2023-04-07T12:17:01.150Z,989.28
2023-04-07T12:18:01.184Z,989.30
2023-04-07T12:19:00.992Z,989.30
2023-04-07T12:20:00.932Z,989.34
2023-04-07T12:21:00.844Z,989.38
2023-04-07T12:22:00.762Z,989.38
2023-04-07T12:23:00.779Z,989.39
2023-04-07T12:24:00.609Z,989.50
2023-04-07T12:25:00.523Z,989.48
2023-04-07T12:26:00.449Z,989.96
2023-04-07T12:27:00.620Z,989.89
2023-04-07T12:28:00.290Z,989.88
2023-04-07T12:29:00.212Z,990.02
2023-04-07T12:30:00.328Z,990.15
2023-04-07T12:31:00.274Z,990.10
2023-04-07T12:32:00.021Z,990.17
2023-04-07T12:32:59.951Z,990.20
2023-04-07T12:33:59.852Z,990.18
2023-04-07T12:34:59.770Z,990.26
2023-04-07T12:35:59.699Z,990.22
2023-04-07T12:36:59.613Z,990.20
2023-04-07T12:37:59.548Z,990.24
2023-04-07T12:38:59.475Z,990.31
2023-04-07T12:40:02.429Z,990.23
2023-04-07T12:40:59.326Z,990.29
2023-04-07T12:41:59.259Z,990.32
2023-04-07T12:42:59.188Z,990.31
2023-04-07T12:43:59.127Z,990.12
2023-04-07T12:44:59.052Z,989.57
2023-04-07T12:45:59.040Z,989.53
2023-04-07T12:46:58.913Z,989.57
2023-04-07T12:47:58.890Z,989.80
2023-04-07T12:48:58.774Z,989.82
2023-04-07T12:49:58.707Z,989.78
2023-04-07T12:50:58.629Z,989.60
2023-04-07T12:51:58.566Z,989.51
2023-04-07T12:52:58.493Z,989.51
2023-04-07T12:53:58.422Z,989.52
2023-04-07T12:54:58.358Z,989.54
2023-04-07T12:55:58.281Z,989.53
2023-04-07T12:56:58.206Z,989.53
2023-04-07T12:57:58.142Z,989.50
2023-04-07T12:58:58.369Z,989.51
2023-04-07T12:59:57.997Z,989.53
2023-04-07T13:00:57.955Z,989.52
2023-04-07T13:01:58.086Z,989.51
2023-04-07T13:02:57.856Z,989.50
2023-04-07T13:03:57.767Z,989.49
2023-04-07T13:04:57.626Z,989.53
2023-04-07T13:05:57.570Z,989.50
2023-04-07T13:06:57.479Z,989.47
2023-04-07T13:07:57.408Z,989.46
2023-04-07T13:08:57.332Z,989.49
2023-04-07T13:09:57.265Z,989.50
2023-04-07T13:10:57.179Z,989.54
2023-04-07T13:11:57.107Z,989.50
2023-04-07T13:12:57.029Z,989.51
2023-04-07T13:13:59.188Z,989.54
2023-04-07T13:15:00.020Z,989.51
2023-04-07T13:15:56.807Z,989.52
2023-04-07T13:16:57.188Z,989.53
2023-04-07T13:17:56.748Z,989.52
2023-04-07T13:18:56.578Z,989.53
2023-04-07T13:19:56.527Z,989.56
2023-04-07T13:21:19.902Z,989.56
2023-04-07T13:21:56.912Z,989.63
2023-04-07T13:23:56.360Z,989.62
2023-04-07T13:24:56.117Z,989.65
2023-04-07T13:25:56.051Z,990.04
2023-04-07T13:26:55.968Z,990.01
2023-04-07T13:27:55.904Z,989.58
2023-04-07T13:28:55.819Z,989.62
2023-04-07T13:29:55.767Z,989.59
2023-04-07T13:30:55.714Z,989.54
2023-04-07T13:31:55.593Z,989.53
2023-04-07T13:32:55.569Z,989.52
2023-04-07T13:33:55.478Z,989.53
2023-04-07T13:34:55.384Z,989.50
2023-04-07T13:35:55.349Z,989.51
2023-04-07T13:36:55.219Z,989.49
2023-04-07T13:37:55.150Z,989.52
2023-04-07T13:38:55.068Z,989.55